KDCA/DCA METAR and TAF weather

Enter ICAO airport designator
Station Type Date Time Source
KDCA METAR 2022/01/18 06:52 UTC NOAA

KDCA 180652Z 31015G28KT 10SM OVC040 02/M07 A2980 RMK AO2 PK WND 27028/0645 SLP089 T00171072 $


Station Type Date Time Source
KDCA Decoded METAR 2022/01/18 06:52 UTC NOAA

WASHINGTON NATIONAL AIRPORT , VA, United States (KDCA) 38-51N 077-02W 18M
Jan 18, 2022 - 01:52 AM EST / 2022.01.18 0652 UTC
Wind: from the NW (310 degrees) at 17 MPH (15 KT) gusting to 32 MPH (28 KT):0
Visibility: 10 mile(s):0
Sky conditions: overcast
Temperature: 35.1 F (1.7 C)
Dew Point: 19.0 F (-7.2 C)
Relative Humidity: 51%
Pressure (altimeter): 29.8 in. Hg (1009 hPa)
ob: KDCA 180652Z 31015G28KT 10SM OVC040 02/M07 A2980 RMK AO2 PK WND 27028/0645 SLP089 T00171072
cycle: 7

Station Type Date Time Source
KDCA TAF 2022/01/18 06:36 UTC NOAA

TAF KDCA 180534Z 1806/1912 29012G19KT P6SM OVC050
FM181100 28014G29KT P6SM SKC
FM181800 28013G24KT P6SM SCT030
FM182200 27010G18KT P6SM FEW200
FM190100 21009KT P6SM FEW200
FM190500 16009KT P6SM SCT120

Example: see airport list